Clintonville, WI

4:13 PM CDT on September 28, 2016 (GMT -0500)
Northside | | Change Station

Elev 846 ft 44.63 °N, 88.76 °W | Updated 36 seconds ago

Mostly Cloudy
Mostly Cloudy
62.2 °F
Feels Like 62.2 °F
N
1.7
Wind Variable Wind from ESE

Today
High -- | Low -- °F
--% Chance of Precip.
Yesterday
High -- | Low -- °F
Precip. -- in
Pressure 30.11 in
Visibility 10.0 miles
Clouds Scattered Clouds 2600 ft
Mostly Cloudy 6500 ft
Dew Point 53 °F
Humidity 72%
Rainfall 0.00 in
Snow Depth Not available.
6:49 AM 6:40 PM
Waning Crescent, 4% visible
METAR KCLI 282055Z AUTO 06008G16KT 10SM SCT026 BKN065 15/09 A3011 RMK AO2 PWINO
Pressure 30.11 in
Visibility 10.0 miles
Clouds Scattered Clouds 2600 ft
Mostly Cloudy 6500 ft
Dew Point 53 °F
Humidity 72%
Rainfall 0.00 in
Snow Depth Not available.
6:49 AM 6:40 PM
Waning Crescent, 4% visible
METAR KCLI 282055Z AUTO 06008G16KT 10SM SCT026 BKN065 15/09 A3011 RMK AO2 PWINO

10-Day Weather Forecast

Almanac

Astronomy

Sep. 28, 2016 Rise Set
Actual Time
Civil Twilight
Nautical Twilight
Astronomical Twilight
Moon
Length of Visible Light
Length of Day
Tomorrow will be .
, % of the Moon is Illuminated

Today's Extremes

State Highs State Lows

Community

WunderPhotos

Upload Photos

1,942,328 photos uploaded!

WunderBlog® & News

Nearby

Air Quality

  Air Quality AQ Index Pollutant
Not available.

Snow Depth

Station Depth Elevation

Earthquake Activity

City Distance Mag. Time & Date
Minimum magnitude displayed is 2.5.

Coastal Water Temperatures

Place Temperature

Stations

Nearby Weather Stations

Station Location Temp. Windchill Dew Point Humidity Wind Precip. Elev Updated Type
                   

Watches & Warnings

There are currently no watches in effect.